sensor_id;sensor_type;location;lat;lon;timestamp;temperature;humidity
22491;DHT22;11412;50.802;4.350;2023-08-20T00:01:25;20.60;99.90
22491;DHT22;11412;50.802;4.350;2023-08-20T00:03:52;20.20;99.90
22491;DHT22;11412;50.802;4.350;2023-08-20T00:06:18;19.90;99.90
22491;DHT22;11412;50.802;4.350;2023-08-20T00:08:44;19.80;99.90
22491;DHT22;11412;50.802;4.350;2023-08-20T00:11:12;19.70;99.90
22491;DHT22;11412;50.802;4.350;2023-08-20T00:13:37;19.80;99.90
22491;DHT22;11412;50.802;4.350;2023-08-20T00:16:03;19.70;99.90
22491;DHT22;11412;50.802;4.350;2023-08-20T00:18:29;19.70;99.90
22491;DHT22;11412;50.802;4.350;2023-08-20T00:20:55;19.70;99.90
22491;DHT22;11412;50.802;4.350;2023-08-20T00:23:22;19.60;99.90
22491;DHT22;11412;50.802;4.350;2023-08-20T00:25:48;19.40;99.90
22491;DHT22;11412;50.802;4.350;2023-08-20T00:28:14;19.50;99.90
22491;DHT22;11412;50.802;4.350;2023-08-20T00:30:40;19.40;99.90
22491;DHT22;11412;50.802;4.350;2023-08-20T00:33:06;19.60;99.90
22491;DHT22;11412;50.802;4.350;2023-08-20T00:35:31;19.70;99.90
22491;DHT22;11412;50.802;4.350;2023-08-20T00:37:57;19.60;99.90
22491;DHT22;11412;50.802;4.350;2023-08-20T00:40:23;19.70;99.90
22491;DHT22;11412;50.802;4.350;2023-08-20T00:42:49;19.70;99.90
22491;DHT22;11412;50.802;4.350;2023-08-20T00:45:15;19.50;99.90
22491;DHT22;11412;50.802;4.350;2023-08-20T00:47:42;19.60;99.90
22491;DHT22;11412;50.802;4.350;2023-08-20T00:50:08;19.50;99.90
22491;DHT22;11412;50.802;4.350;2023-08-20T00:52:34;19.70;99.90
22491;DHT22;11412;50.802;4.350;2023-08-20T00:55:08;19.90;99.90
22491;DHT22;11412;50.802;4.350;2023-08-20T00:57:35;19.90;99.90
22491;DHT22;11412;50.802;4.350;2023-08-20T01:00:01;20.10;99.90
22491;DHT22;11412;50.802;4.350;2023-08-20T01:02:32;19.80;99.90
22491;DHT22;11412;50.802;4.350;2023-08-20T01:04:58;19.60;99.90
22491;DHT22;11412;50.802;4.350;2023-08-20T01:07:32;19.60;99.90
22491;DHT22;11412;50.802;4.350;2023-08-20T01:12:39;19.40;99.90
22491;DHT22;11412;50.802;4.350;2023-08-20T01:15:06;19.40;99.90
22491;DHT22;11412;50.802;4.350;2023-08-20T01:17:39;19.40;99.90
22491;DHT22;11412;50.802;4.350;2023-08-20T01:20:06;19.60;99.90
22491;DHT22;11412;50.802;4.350;2023-08-20T01:28:23;19.70;99.90
22491;DHT22;11412;50.802;4.350;2023-08-20T01:30:49;19.80;99.90
22491;DHT22;11412;50.802;4.350;2023-08-20T01:33:16;19.80;99.90
22491;DHT22;11412;50.802;4.350;2023-08-20T01:35:42;19.80;99.90
22491;DHT22;11412;50.802;4.350;2023-08-20T01:38:08;19.70;99.90
22491;DHT22;11412;50.802;4.350;2023-08-20T01:40:34;19.70;99.90
22491;DHT22;11412;50.802;4.350;2023-08-20T01:43:00;19.70;99.90
22491;DHT22;11412;50.802;4.350;2023-08-20T01:45:26;19.70;99.90
22491;DHT22;11412;50.802;4.350;2023-08-20T01:47:52;19.60;99.90
22491;DHT22;11412;50.802;4.350;2023-08-20T01:50:18;19.50;99.90
22491;DHT22;11412;50.802;4.350;2023-08-20T01:52:44;19.50;99.90
22491;DHT22;11412;50.802;4.350;2023-08-20T01:55:10;19.70;99.90
22491;DHT22;11412;50.802;4.350;2023-08-20T01:57:36;19.80;99.90
22491;DHT22;11412;50.802;4.350;2023-08-20T02:00:03;19.60;99.90
22491;DHT22;11412;50.802;4.350;2023-08-20T02:02:30;19.40;99.90
22491;DHT22;11412;50.802;4.350;2023-08-20T02:04:56;19.30;99.90
22491;DHT22;11412;50.802;4.350;2023-08-20T02:07:22;19.30;99.90
22491;DHT22;11412;50.802;4.350;2023-08-20T02:09:47;19.20;99.90
22491;DHT22;11412;50.802;4.350;2023-08-20T02:12:14;19.00;99.90
22491;DHT22;11412;50.802;4.350;2023-08-20T02:14:40;19.00;99.90
22491;DHT22;11412;50.802;4.350;2023-08-20T02:17:06;19.00;99.90
22491;DHT22;11412;50.802;4.350;2023-08-20T02:19:32;19.10;99.90
22491;DHT22;11412;50.802;4.350;2023-08-20T02:21:58;19.30;99.90
22491;DHT22;11412;50.802;4.350;2023-08-20T02:24:23;19.40;99.90
22491;DHT22;11412;50.802;4.350;2023-08-20T02:26:49;19.30;99.90
22491;DHT22;11412;50.802;4.350;2023-08-20T02:29:15;19.10;99.90
22491;DHT22;11412;50.802;4.350;2023-08-20T02:31:41;19.40;99.90
22491;DHT22;11412;50.802;4.350;2023-08-20T02:34:06;19.40;99.90
22491;DHT22;11412;50.802;4.350;2023-08-20T02:36:32;19.10;99.90
22491;DHT22;11412;50.802;4.350;2023-08-20T02:38:57;18.90;99.90
22491;DHT22;11412;50.802;4.350;2023-08-20T02:41:23;19.00;99.90
22491;DHT22;11412;50.802;4.350;2023-08-20T02:43:49;19.20;99.90
22491;DHT22;11412;50.802;4.350;2023-08-20T02:46:14;18.90;99.90
22491;DHT22;11412;50.802;4.350;2023-08-20T02:48:40;18.70;99.90
22491;DHT22;11412;50.802;4.350;2023-08-20T02:51:06;18.60;99.90
22491;DHT22;11412;50.802;4.350;2023-08-20T02:53:32;18.40;99.90
22491;DHT22;11412;50.802;4.350;2023-08-20T02:55:58;18.40;99.90
22491;DHT22;11412;50.802;4.350;2023-08-20T02:58:23;18.30;99.90
22491;DHT22;11412;50.802;4.350;2023-08-20T03:00:49;18.60;99.90
22491;DHT22;11412;50.802;4.350;2023-08-20T03:03:15;18.80;99.90
22491;DHT22;11412;50.802;4.350;2023-08-20T03:05:41;18.90;99.90
22491;DHT22;11412;50.802;4.350;2023-08-20T03:08:07;18.90;99.90
22491;DHT22;11412;50.802;4.350;2023-08-20T03:10:34;18.70;99.90
22491;DHT22;11412;50.802;4.350;2023-08-20T03:13:03;18.40;99.90
22491;DHT22;11412;50.802;4.350;2023-08-20T03:15:29;18.20;99.90
22491;DHT22;11412;50.802;4.350;2023-08-20T03:17:55;18.10;99.90
22491;DHT22;11412;50.802;4.350;2023-08-20T03:20:21;18.20;99.90
22491;DHT22;11412;50.802;4.350;2023-08-20T03:22:46;18.40;99.90
22491;DHT22;11412;50.802;4.350;2023-08-20T03:25:12;18.40;99.90
22491;DHT22;11412;50.802;4.350;2023-08-20T03:27:38;18.20;99.90
22491;DHT22;11412;50.802;4.350;2023-08-20T03:30:04;18.10;99.90
22491;DHT22;11412;50.802;4.350;2023-08-20T03:32:30;18.00;99.90
22491;DHT22;11412;50.802;4.350;2023-08-20T03:34:56;17.90;99.90
22491;DHT22;11412;50.802;4.350;2023-08-20T03:37:24;18.00;99.90
22491;DHT22;11412;50.802;4.350;2023-08-20T03:39:50;18.00;99.90
22491;DHT22;11412;50.802;4.350;2023-08-20T03:42:16;18.00;99.90
22491;DHT22;11412;50.802;4.350;2023-08-20T03:44:41;18.20;99.90
22491;DHT22;11412;50.802;4.350;2023-08-20T03:47:07;18.40;99.90
22491;DHT22;11412;50.802;4.350;2023-08-20T03:49:33;18.40;99.90
22491;DHT22;11412;50.802;4.350;2023-08-20T03:51:58;18.20;99.90
22491;DHT22;11412;50.802;4.350;2023-08-20T03:54:24;17.90;99.90
22491;DHT22;11412;50.802;4.350;2023-08-20T03:56:50;17.90;99.90
22491;DHT22;11412;50.802;4.350;2023-08-20T03:59:15;18.00;99.90
22491;DHT22;11412;50.802;4.350;2023-08-20T04:01:41;18.10;99.90
22491;DHT22;11412;50.802;4.350;2023-08-20T04:04:07;18.10;99.90
22491;DHT22;11412;50.802;4.350;2023-08-20T04:06:32;17.80;99.90
22491;DHT22;11412;50.802;4.350;2023-08-20T04:08:58;17.70;99.90
22491;DHT22;11412;50.802;4.350;2023-08-20T04:11:24;17.70;99.90
22491;DHT22;11412;50.802;4.350;2023-08-20T04:13:49;17.60;99.90
22491;DHT22;11412;50.802;4.350;2023-08-20T04:16:15;17.70;99.90
22491;DHT22;11412;50.802;4.350;2023-08-20T04:18:41;17.70;99.90
22491;DHT22;11412;50.802;4.350;2023-08-20T04:21:06;17.80;99.90
22491;DHT22;11412;50.802;4.350;2023-08-20T04:23:35;18.10;99.90
22491;DHT22;11412;50.802;4.350;2023-08-20T04:26:00;18.10;99.90
22491;DHT22;11412;50.802;4.350;2023-08-20T04:28:26;18.00;99.90
22491;DHT22;11412;50.802;4.350;2023-08-20T04:30:52;18.30;99.90
22491;DHT22;11412;50.802;4.350;2023-08-20T04:33:20;18.00;99.90
22491;DHT22;11412;50.802;4.350;2023-08-20T04:35:46;17.90;99.90
22491;DHT22;11412;50.802;4.350;2023-08-20T04:38:12;17.90;99.90
22491;DHT22;11412;50.802;4.350;2023-08-20T04:40:37;18.10;99.90
22491;DHT22;11412;50.802;4.350;2023-08-20T04:43:03;18.20;99.90
22491;DHT22;11412;50.802;4.350;2023-08-20T04:45:29;18.30;99.90
22491;DHT22;11412;50.802;4.350;2023-08-20T04:47:54;18.20;99.90
22491;DHT22;11412;50.802;4.350;2023-08-20T04:50:21;18.00;99.90
22491;DHT22;11412;50.802;4.350;2023-08-20T04:52:47;17.80;99.90
22491;DHT22;11412;50.802;4.350;2023-08-20T04:55:12;17.80;99.90
22491;DHT22;11412;50.802;4.350;2023-08-20T04:57:41;17.70;99.90
22491;DHT22;11412;50.802;4.350;2023-08-20T05:00:07;17.70;99.90
22491;DHT22;11412;50.802;4.350;2023-08-20T05:02:33;17.60;99.90
22491;DHT22;11412;50.802;4.350;2023-08-20T05:04:58;17.50;99.90
22491;DHT22;11412;50.802;4.350;2023-08-20T05:07:24;17.40;99.90
22491;DHT22;11412;50.802;4.350;2023-08-20T05:09:50;17.50;99.90
22491;DHT22;11412;50.802;4.350;2023-08-20T05:12:15;17.90;99.90
22491;DHT22;11412;50.802;4.350;2023-08-20T05:14:41;18.10;99.90
22491;DHT22;11412;50.802;4.350;2023-08-20T05:17:07;18.10;99.90
22491;DHT22;11412;50.802;4.350;2023-08-20T05:19:32;17.80;99.90
22491;DHT22;11412;50.802;4.350;2023-08-20T05:21:58;17.70;99.90
22491;DHT22;11412;50.802;4.350;2023-08-20T05:24:25;17.70;99.90
22491;DHT22;11412;50.802;4.350;2023-08-20T05:29:30;17.90;99.90
22491;DHT22;11412;50.802;4.350;2023-08-20T05:31:56;17.60;99.90
22491;DHT22;11412;50.802;4.350;2023-08-20T05:34:22;17.70;99.90
22491;DHT22;11412;50.802;4.350;2023-08-20T05:36:47;17.80;99.90
22491;DHT22;11412;50.802;4.350;2023-08-20T05:39:13;17.90;99.90
22491;DHT22;11412;50.802;4.350;2023-08-20T05:41:39;18.00;99.90
22491;DHT22;11412;50.802;4.350;2023-08-20T05:44:05;18.00;99.90
22491;DHT22;11412;50.802;4.350;2023-08-20T05:46:30;18.10;99.90
22491;DHT22;11412;50.802;4.350;2023-08-20T05:48:56;18.00;99.90
22491;DHT22;11412;50.802;4.350;2023-08-20T05:51:22;18.10;99.90
22491;DHT22;11412;50.802;4.350;2023-08-20T05:53:47;18.00;99.90
22491;DHT22;11412;50.802;4.350;2023-08-20T05:56:13;18.00;99.90
22491;DHT22;11412;50.802;4.350;2023-08-20T05:58:38;18.10;99.90
22491;DHT22;11412;50.802;4.350;2023-08-20T06:01:04;18.30;99.90
22491;DHT22;11412;50.802;4.350;2023-08-20T06:03:30;18.40;99.90
22491;DHT22;11412;50.802;4.350;2023-08-20T06:05:57;18.40;99.90
22491;DHT22;11412;50.802;4.350;2023-08-20T06:08:23;18.20;99.90
22491;DHT22;11412;50.802;4.350;2023-08-20T06:10:49;18.20;99.90
22491;DHT22;11412;50.802;4.350;2023-08-20T06:13:15;18.10;99.90
22491;DHT22;11412;50.802;4.350;2023-08-20T06:15:41;18.20;99.90
22491;DHT22;11412;50.802;4.350;2023-08-20T06:18:06;18.20;99.90
22491;DHT22;11412;50.802;4.350;2023-08-20T06:20:32;18.30;99.90
22491;DHT22;11412;50.802;4.350;2023-08-20T06:22:58;18.40;99.90
22491;DHT22;11412;50.802;4.350;2023-08-20T06:25:23;18.60;99.90
22491;DHT22;11412;50.802;4.350;2023-08-20T06:27:49;18.70;99.90
22491;DHT22;11412;50.802;4.350;2023-08-20T06:30:15;18.80;99.90
22491;DHT22;11412;50.802;4.350;2023-08-20T06:32:43;19.10;99.90
22491;DHT22;11412;50.802;4.350;2023-08-20T06:35:09;19.40;99.90
22491;DHT22;11412;50.802;4.350;2023-08-20T06:37:35;19.80;99.90
22491;DHT22;11412;50.802;4.350;2023-08-20T06:40:01;20.30;99.90
22491;DHT22;11412;50.802;4.350;2023-08-20T06:42:27;20.60;99.90
22491;DHT22;11412;50.802;4.350;2023-08-20T06:44:52;20.80;99.90
22491;DHT22;11412;50.802;4.350;2023-08-20T06:47:18;21.00;99.90
22491;DHT22;11412;50.802;4.350;2023-08-20T06:49:43;21.40;99.90
22491;DHT22;11412;50.802;4.350;2023-08-20T06:52:09;21.60;99.90
22491;DHT22;11412;50.802;4.350;2023-08-20T06:54:35;21.80;99.90
22491;DHT22;11412;50.802;4.350;2023-08-20T06:57:00;22.00;99.90
22491;DHT22;11412;50.802;4.350;2023-08-20T06:59:26;22.10;99.90
22491;DHT22;11412;50.802;4.350;2023-08-20T07:01:52;22.30;99.90
22491;DHT22;11412;50.802;4.350;2023-08-20T07:04:18;22.70;99.90
22491;DHT22;11412;50.802;4.350;2023-08-20T07:06:44;22.70;99.90
22491;DHT22;11412;50.802;4.350;2023-08-20T07:09:10;22.70;99.90
22491;DHT22;11412;50.802;4.350;2023-08-20T07:11:35;22.40;99.90
22491;DHT22;11412;50.802;4.350;2023-08-20T07:14:01;22.30;99.90
22491;DHT22;11412;50.802;4.350;2023-08-20T07:16:26;22.20;99.90
22491;DHT22;11412;50.802;4.350;2023-08-20T07:18:52;22.20;99.90
22491;DHT22;11412;50.802;4.350;2023-08-20T07:21:18;22.30;99.90
22491;DHT22;11412;50.802;4.350;2023-08-20T07:23:45;22.40;99.90
22491;DHT22;11412;50.802;4.350;2023-08-20T07:26:11;22.50;99.90
22491;DHT22;11412;50.802;4.350;2023-08-20T07:28:41;22.60;99.90
22491;DHT22;11412;50.802;4.350;2023-08-20T07:31:29;22.70;99.90
22491;DHT22;11412;50.802;4.350;2023-08-20T07:33:55;22.80;99.90
22491;DHT22;11412;50.802;4.350;2023-08-20T07:36:22;22.90;99.90
22491;DHT22;11412;50.802;4.350;2023-08-20T07:38:48;23.10;99.90
22491;DHT22;11412;50.802;4.350;2023-08-20T07:41:15;23.60;99.90
22491;DHT22;11412;50.802;4.350;2023-08-20T07:43:41;23.60;99.90
22491;DHT22;11412;50.802;4.350;2023-08-20T07:46:08;23.70;99.90
22491;DHT22;11412;50.802;4.350;2023-08-20T07:48:34;23.70;99.90
22491;DHT22;11412;50.802;4.350;2023-08-20T07:51:01;23.90;99.90
22491;DHT22;11412;50.802;4.350;2023-08-20T07:53:27;23.90;99.90
22491;DHT22;11412;50.802;4.350;2023-08-20T07:55:53;23.80;99.90
22491;DHT22;11412;50.802;4.350;2023-08-20T07:58:18;23.80;99.90
22491;DHT22;11412;50.802;4.350;2023-08-20T08:00:44;23.80;99.90
22491;DHT22;11412;50.802;4.350;2023-08-20T08:03:10;23.80;99.90
22491;DHT22;11412;50.802;4.350;2023-08-20T08:05:36;23.80;99.90
22491;DHT22;11412;50.802;4.350;2023-08-20T08:08:02;23.70;99.90
22491;DHT22;11412;50.802;4.350;2023-08-20T08:10:28;23.60;99.90
22491;DHT22;11412;50.802;4.350;2023-08-20T08:12:54;23.50;99.90
22491;DHT22;11412;50.802;4.350;2023-08-20T08:15:20;23.30;99.90
22491;DHT22;11412;50.802;4.350;2023-08-20T08:17:46;23.30;99.90
22491;DHT22;11412;50.802;4.350;2023-08-20T08:20:12;23.20;99.90
22491;DHT22;11412;50.802;4.350;2023-08-20T08:22:39;23.10;99.90
22491;DHT22;11412;50.802;4.350;2023-08-20T08:25:05;23.30;99.90
22491;DHT22;11412;50.802;4.350;2023-08-20T08:27:31;23.20;99.90
22491;DHT22;11412;50.802;4.350;2023-08-20T08:29:57;23.10;99.90
22491;DHT22;11412;50.802;4.350;2023-08-20T08:32:22;23.20;99.90
22491;DHT22;11412;50.802;4.350;2023-08-20T08:34:48;23.20;99.90
22491;DHT22;11412;50.802;4.350;2023-08-20T08:37:14;23.40;99.90
22491;DHT22;11412;50.802;4.350;2023-08-20T08:39:41;23.50;99.90
22491;DHT22;11412;50.802;4.350;2023-08-20T08:42:06;23.60;99.90
22491;DHT22;11412;50.802;4.350;2023-08-20T08:44:33;23.70;99.90
22491;DHT22;11412;50.802;4.350;2023-08-20T08:47:06;23.90;99.90
22491;DHT22;11412;50.802;4.350;2023-08-20T08:49:35;24.00;99.90
22491;DHT22;11412;50.802;4.350;2023-08-20T08:52:02;24.30;99.90
22491;DHT22;11412;50.802;4.350;2023-08-20T08:54:29;24.40;99.90
22491;DHT22;11412;50.802;4.350;2023-08-20T08:56:55;24.60;99.90
22491;DHT22;11412;50.802;4.350;2023-08-20T08:59:21;24.90;99.90
22491;DHT22;11412;50.802;4.350;2023-08-20T09:01:47;25.00;99.90
22491;DHT22;11412;50.802;4.350;2023-08-20T09:04:13;24.90;99.90
22491;DHT22;11412;50.802;4.350;2023-08-20T09:06:49;25.00;99.90
22491;DHT22;11412;50.802;4.350;2023-08-20T09:09:17;25.30;99.90
22491;DHT22;11412;50.802;4.350;2023-08-20T09:11:43;25.40;99.90
22491;DHT22;11412;50.802;4.350;2023-08-20T09:14:29;25.80;99.90
22491;DHT22;11412;50.802;4.350;2023-08-20T09:17:02;26.10;99.90
22491;DHT22;11412;50.802;4.350;2023-08-20T09:19:29;26.20;99.90
22491;DHT22;11412;50.802;4.350;2023-08-20T09:21:58;26.20;99.90
22491;DHT22;11412;50.802;4.350;2023-08-20T09:24:45;26.30;99.90
22491;DHT22;11412;50.802;4.350;2023-08-20T09:27:14;26.70;99.90
22491;DHT22;11412;50.802;4.350;2023-08-20T09:29:48;26.90;99.90
22491;DHT22;11412;50.802;4.350;2023-08-20T09:32:19;27.20;99.90
22491;DHT22;11412;50.802;4.350;2023-08-20T09:34:45;27.40;99.90
22491;DHT22;11412;50.802;4.350;2023-08-20T09:37:13;27.60;99.90
22491;DHT22;11412;50.802;4.350;2023-08-20T09:39:39;27.70;99.90
22491;DHT22;11412;50.802;4.350;2023-08-20T09:42:06;27.80;99.90
22491;DHT22;11412;50.802;4.350;2023-08-20T09:44:34;27.70;99.90
22491;DHT22;11412;50.802;4.350;2023-08-20T09:47:08;27.70;99.90
22491;DHT22;11412;50.802;4.350;2023-08-20T09:49:39;27.80;99.90
22491;DHT22;11412;50.802;4.350;2023-08-20T09:52:07;28.30;99.90
22491;DHT22;11412;50.802;4.350;2023-08-20T09:54:39;28.80;99.90
22491;DHT22;11412;50.802;4.350;2023-08-20T09:57:14;28.90;99.90
22491;DHT22;11412;50.802;4.350;2023-08-20T09:59:42;28.50;99.90
22491;DHT22;11412;50.802;4.350;2023-08-20T10:02:12;28.60;99.90
22491;DHT22;11412;50.802;4.350;2023-08-20T10:04:39;28.60;99.90
22491;DHT22;11412;50.802;4.350;2023-08-20T10:07:05;28.70;99.90
22491;DHT22;11412;50.802;4.350;2023-08-20T10:09:31;28.70;99.90
22491;DHT22;11412;50.802;4.350;2023-08-20T10:11:57;28.90;99.90
22491;DHT22;11412;50.802;4.350;2023-08-20T10:14:23;29.10;99.90
22491;DHT22;11412;50.802;4.350;2023-08-20T10:16:48;29.20;99.90
22491;DHT22;11412;50.802;4.350;2023-08-20T10:19:16;29.30;99.90
22491;DHT22;11412;50.802;4.350;2023-08-20T10:21:45;29.50;99.90
22491;DHT22;11412;50.802;4.350;2023-08-20T10:24:17;29.40;99.90
22491;DHT22;11412;50.802;4.350;2023-08-20T10:26:45;29.70;99.90
22491;DHT22;11412;50.802;4.350;2023-08-20T10:29:34;29.50;99.90
22491;DHT22;11412;50.802;4.350;2023-08-20T10:32:00;29.60;99.90
22491;DHT22;11412;50.802;4.350;2023-08-20T10:34:33;29.60;99.90
22491;DHT22;11412;50.802;4.350;2023-08-20T10:37:12;29.70;99.90
22491;DHT22;11412;50.802;4.350;2023-08-20T10:39:38;29.40;99.90
22491;DHT22;11412;50.802;4.350;2023-08-20T10:42:28;29.30;99.90
22491;DHT22;11412;50.802;4.350;2023-08-20T10:45:00;29.50;99.90
22491;DHT22;11412;50.802;4.350;2023-08-20T10:47:36;29.90;99.90
22491;DHT22;11412;50.802;4.350;2023-08-20T10:50:02;29.50;99.90
22491;DHT22;11412;50.802;4.350;2023-08-20T10:52:27;29.30;99.90
22491;DHT22;11412;50.802;4.350;2023-08-20T10:54:56;29.40;99.90
22491;DHT22;11412;50.802;4.350;2023-08-20T10:57:22;29.60;99.90
22491;DHT22;11412;50.802;4.350;2023-08-20T10:59:58;29.60;99.90
22491;DHT22;11412;50.802;4.350;2023-08-20T11:02:23;29.90;99.90
22491;DHT22;11412;50.802;4.350;2023-08-20T11:04:52;30.20;99.90
22491;DHT22;11412;50.802;4.350;2023-08-20T11:07:20;30.20;99.90
22491;DHT22;11412;50.802;4.350;2023-08-20T11:09:46;30.20;99.90
22491;DHT22;11412;50.802;4.350;2023-08-20T11:12:16;29.90;99.90
22491;DHT22;11412;50.802;4.350;2023-08-20T11:14:45;29.70;99.90
22491;DHT22;11412;50.802;4.350;2023-08-20T11:17:10;30.00;99.90
22491;DHT22;11412;50.802;4.350;2023-08-20T11:19:36;29.90;99.90
22491;DHT22;11412;50.802;4.350;2023-08-20T11:22:02;30.10;99.90
22491;DHT22;11412;50.802;4.350;2023-08-20T11:24:31;30.50;99.90
22491;DHT22;11412;50.802;4.350;2023-08-20T11:26:57;30.90;99.90
22491;DHT22;11412;50.802;4.350;2023-08-20T11:29:25;30.90;99.90
22491;DHT22;11412;50.802;4.350;2023-08-20T11:31:52;31.20;99.90
22491;DHT22;11412;50.802;4.350;2023-08-20T11:34:21;31.20;99.90
22491;DHT22;11412;50.802;4.350;2023-08-20T11:36:47;31.30;99.90
22491;DHT22;11412;50.802;4.350;2023-08-20T11:39:13;31.30;99.90
22491;DHT22;11412;50.802;4.350;2023-08-20T11:41:40;31.00;99.90
22491;DHT22;11412;50.802;4.350;2023-08-20T11:44:08;31.20;99.90
22491;DHT22;11412;50.802;4.350;2023-08-20T11:46:42;31.50;99.90
22491;DHT22;11412;50.802;4.350;2023-08-20T11:49:10;31.50;99.90
22491;DHT22;11412;50.802;4.350;2023-08-20T11:51:44;31.60;99.90
22491;DHT22;11412;50.802;4.350;2023-08-20T11:54:14;31.70;99.90
22491;DHT22;11412;50.802;4.350;2023-08-20T11:56:50;31.80;99.90
22491;DHT22;11412;50.802;4.350;2023-08-20T11:59:18;31.70;99.90
22491;DHT22;11412;50.802;4.350;2023-08-20T12:02:07;31.80;99.90
22491;DHT22;11412;50.802;4.350;2023-08-20T12:04:33;31.70;99.90
22491;DHT22;11412;50.802;4.350;2023-08-20T12:07:07;31.80;99.90
22491;DHT22;11412;50.802;4.350;2023-08-20T12:09:34;31.90;99.90
22491;DHT22;11412;50.802;4.350;2023-08-20T12:12:00;31.40;99.90
22491;DHT22;11412;50.802;4.350;2023-08-20T12:14:26;31.40;99.90
22491;DHT22;11412;50.802;4.350;2023-08-20T12:16:54;31.40;99.90
22491;DHT22;11412;50.802;4.350;2023-08-20T12:19:20;31.60;99.90
22491;DHT22;11412;50.802;4.350;2023-08-20T12:21:46;31.60;99.90
22491;DHT22;11412;50.802;4.350;2023-08-20T12:24:12;31.40;99.90
22491;DHT22;11412;50.802;4.350;2023-08-20T12:26:39;31.10;99.90
22491;DHT22;11412;50.802;4.350;2023-08-20T12:29:05;31.10;99.90
22491;DHT22;11412;50.802;4.350;2023-08-20T12:31:32;31.30;99.90
22491;DHT22;11412;50.802;4.350;2023-08-20T12:33:57;31.60;99.90
22491;DHT22;11412;50.802;4.350;2023-08-20T12:36:23;31.70;99.90
22491;DHT22;11412;50.802;4.350;2023-08-20T12:38:49;31.70;99.90
22491;DHT22;11412;50.802;4.350;2023-08-20T12:41:15;31.50;99.90
22491;DHT22;11412;50.802;4.350;2023-08-20T12:43:40;31.30;99.90
22491;DHT22;11412;50.802;4.350;2023-08-20T12:46:06;31.20;99.90
22491;DHT22;11412;50.802;4.350;2023-08-20T12:48:32;31.10;99.90
22491;DHT22;11412;50.802;4.350;2023-08-20T12:50:58;30.80;99.90
22491;DHT22;11412;50.802;4.350;2023-08-20T12:53:24;30.90;99.90
22491;DHT22;11412;50.802;4.350;2023-08-20T12:55:50;31.00;99.90
22491;DHT22;11412;50.802;4.350;2023-08-20T12:58:16;31.00;99.90
22491;DHT22;11412;50.802;4.350;2023-08-20T13:00:43;30.90;99.90
22491;DHT22;11412;50.802;4.350;2023-08-20T13:03:09;30.80;99.90
22491;DHT22;11412;50.802;4.350;2023-08-20T13:05:35;30.80;99.90
22491;DHT22;11412;50.802;4.350;2023-08-20T13:08:01;31.10;99.90
22491;DHT22;11412;50.802;4.350;2023-08-20T13:10:27;31.30;99.90
22491;DHT22;11412;50.802;4.350;2023-08-20T13:12:58;30.90;99.90
22491;DHT22;11412;50.802;4.350;2023-08-20T13:15:25;31.00;99.90
22491;DHT22;11412;50.802;4.350;2023-08-20T13:17:51;30.90;99.90
22491;DHT22;11412;50.802;4.350;2023-08-20T13:20:17;31.20;99.90
22491;DHT22;11412;50.802;4.350;2023-08-20T13:22:49;31.40;99.90
22491;DHT22;11412;50.802;4.350;2023-08-20T13:25:15;31.50;99.90
22491;DHT22;11412;50.802;4.350;2023-08-20T13:27:41;31.80;99.90
22491;DHT22;11412;50.802;4.350;2023-08-20T13:30:07;31.70;99.90
22491;DHT22;11412;50.802;4.350;2023-08-20T13:32:37;31.80;99.90
22491;DHT22;11412;50.802;4.350;2023-08-20T13:35:03;32.00;99.90
22491;DHT22;11412;50.802;4.350;2023-08-20T13:37:32;32.00;99.90
22491;DHT22;11412;50.802;4.350;2023-08-20T13:39:58;31.70;99.90
22491;DHT22;11412;50.802;4.350;2023-08-20T13:42:24;31.40;99.90
22491;DHT22;11412;50.802;4.350;2023-08-20T13:44:50;31.30;99.90
22491;DHT22;11412;50.802;4.350;2023-08-20T13:47:16;31.40;99.90
22491;DHT22;11412;50.802;4.350;2023-08-20T13:49:41;31.50;99.90
22491;DHT22;11412;50.802;4.350;2023-08-20T13:52:09;31.20;99.90
22491;DHT22;11412;50.802;4.350;2023-08-20T13:54:35;31.10;99.90
22491;DHT22;11412;50.802;4.350;2023-08-20T13:57:02;30.80;99.90
22491;DHT22;11412;50.802;4.350;2023-08-20T13:59:29;31.10;99.90
22491;DHT22;11412;50.802;4.350;2023-08-20T14:01:55;31.50;99.90
22491;DHT22;11412;50.802;4.350;2023-08-20T14:04:21;31.60;99.90
22491;DHT22;11412;50.802;4.350;2023-08-20T14:06:46;31.30;99.90
22491;DHT22;11412;50.802;4.350;2023-08-20T14:09:13;31.20;99.90
22491;DHT22;11412;50.802;4.350;2023-08-20T14:11:39;31.10;99.90
22491;DHT22;11412;50.802;4.350;2023-08-20T14:14:05;30.70;99.90
22491;DHT22;11412;50.802;4.350;2023-08-20T14:16:31;30.50;99.90
22491;DHT22;11412;50.802;4.350;2023-08-20T14:18:57;30.60;99.90
22491;DHT22;11412;50.802;4.350;2023-08-20T14:21:23;30.80;99.90
22491;DHT22;11412;50.802;4.350;2023-08-20T14:23:48;30.60;99.90
22491;DHT22;11412;50.802;4.350;2023-08-20T14:26:14;30.40;99.90
22491;DHT22;11412;50.802;4.350;2023-08-20T14:28:41;30.30;99.90
22491;DHT22;11412;50.802;4.350;2023-08-20T14:31:09;30.20;99.90
22491;DHT22;11412;50.802;4.350;2023-08-20T14:33:34;30.30;99.90
22491;DHT22;11412;50.802;4.350;2023-08-20T14:36:00;30.40;99.90
22491;DHT22;11412;50.802;4.350;2023-08-20T14:38:28;30.70;99.90
22491;DHT22;11412;50.802;4.350;2023-08-20T14:40:58;30.60;99.90
22491;DHT22;11412;50.802;4.350;2023-08-20T14:43:24;30.70;99.90
22491;DHT22;11412;50.802;4.350;2023-08-20T14:45:50;30.80;99.90
22491;DHT22;11412;50.802;4.350;2023-08-20T14:48:15;30.90;99.90
22491;DHT22;11412;50.802;4.350;2023-08-20T14:50:41;30.90;99.90
22491;DHT22;11412;50.802;4.350;2023-08-20T14:53:06;30.90;99.90
22491;DHT22;11412;50.802;4.350;2023-08-20T14:55:33;31.00;99.90
22491;DHT22;11412;50.802;4.350;2023-08-20T14:57:59;31.10;99.90
22491;DHT22;11412;50.802;4.350;2023-08-20T15:00:25;31.10;99.90
22491;DHT22;11412;50.802;4.350;2023-08-20T15:02:50;30.70;99.90
22491;DHT22;11412;50.802;4.350;2023-08-20T15:05:17;30.70;99.90
22491;DHT22;11412;50.802;4.350;2023-08-20T15:07:42;30.80;99.90
22491;DHT22;11412;50.802;4.350;2023-08-20T15:10:09;30.80;99.90
22491;DHT22;11412;50.802;4.350;2023-08-20T15:12:35;30.90;99.90
22491;DHT22;11412;50.802;4.350;2023-08-20T15:15:04;31.00;99.90
22491;DHT22;11412;50.802;4.350;2023-08-20T15:17:31;30.90;99.90
22491;DHT22;11412;50.802;4.350;2023-08-20T15:19:58;30.70;99.90
22491;DHT22;11412;50.802;4.350;2023-08-20T15:22:23;30.20;99.90
22491;DHT22;11412;50.802;4.350;2023-08-20T15:24:49;29.80;99.90
22491;DHT22;11412;50.802;4.350;2023-08-20T15:27:17;29.50;99.90
22491;DHT22;11412;50.802;4.350;2023-08-20T15:29:43;29.30;99.90
22491;DHT22;11412;50.802;4.350;2023-08-20T15:32:09;29.30;99.90
22491;DHT22;11412;50.802;4.350;2023-08-20T15:34:35;29.20;99.90
22491;DHT22;11412;50.802;4.350;2023-08-20T15:37:01;29.30;99.90
22491;DHT22;11412;50.802;4.350;2023-08-20T15:39:26;29.30;99.90